Time;durP1;ratioP1;P1;durP2;ratioP2;P2;SDS_P1;SDS_P2;PMS_P1;PMS_P2;Temp;Humidity;BMP_temperature;BMP_pressure;BME280_temperature;BME280_humidity;BME280_pressure;Samples;Min_cycle;Max_cycle;Signal;HPM_P1;HPM_P2
2021/04/02 00:01:08;;;;;;;40.60;23.43;;;;;;;10.26;65.34;96391.19;5064439;28;20063;-76
2021/04/02 00:03:37;;;;;;;34.03;23.07;;;;;;;10.27;65.41;96392.88;5045160;28;20052;-77
2021/04/02 00:06:05;;;;;;;34.93;24.07;;;;;;;10.20;65.74;96394.44;5063643;28;20043;-76
2021/04/02 00:08:31;;;;;;;42.57;24.30;;;;;;;10.12;66.22;96387.28;5064782;28;20123;-77
2021/04/02 00:11:06;;;;;;;43.30;25.60;;;;;;;10.25;65.28;96392.16;5068293;28;20439;-77
2021/04/02 00:13:50;;;;;;;37.13;24.23;;;;;;;10.21;65.81;96388.19;5067892;28;20451;-76
2021/04/02 00:16:19;;;;;;;39.93;23.80;;;;;;;10.16;66.29;96386.03;5051160;28;20032;-76
2021/04/02 00:18:45;;;;;;;36.57;24.23;;;;;;;10.14;65.82;96380.09;5051343;28;20037;-76
2021/04/02 00:21:13;;;;;;;51.67;33.63;;;;;;;10.08;65.83;96384.13;5067840;28;20729;-76
2021/04/02 00:23:39;;;;;;;37.47;27.03;;;;;;;10.11;65.57;96383.84;5068476;28;20020;-77
2021/04/02 00:26:11;;;;;;;38.80;25.47;;;;;;;10.02;65.69;96384.75;5047572;28;20531;-76
2021/04/02 00:28:37;;;;;;;39.47;25.60;;;;;;;9.84;66.27;96384.78;5041766;28;20097;-76
2021/04/02 00:31:03;;;;;;;43.83;26.40;;;;;;;9.74;67.14;96380.56;5066012;28;20095;-76
2021/04/02 00:33:31;;;;;;;42.63;26.53;;;;;;;9.76;67.38;96386.47;5070010;28;20180;-77
2021/04/02 00:35:58;;;;;;;42.60;27.07;;;;;;;9.73;67.27;96387.63;5070084;28;20033;-75
2021/04/02 00:38:24;;;;;;;42.63;25.17;;;;;;;9.74;67.63;96385.81;5048595;28;20040;-76
2021/04/02 00:41:01;;;;;;;42.63;26.83;;;;;;;9.59;67.92;96386.34;5044060;28;20571;-76
2021/04/02 00:43:30;;;;;;;45.77;25.40;;;;;;;9.55;68.09;96384.16;5040454;28;20043;-76
2021/04/02 00:45:55;;;;;;;41.40;23.87;;;;;;;9.52;68.46;96381.81;5057885;28;20763;-77
2021/04/02 00:48:21;;;;;;;44.77;25.93;;;;;;;9.59;68.13;96383.72;5046691;28;20036;-76
2021/04/02 00:51:18;;;;;;;38.10;24.33;;;;;;;9.50;68.43;96389.03;5062130;28;20115;-77
2021/04/02 00:53:45;;;;;;;38.30;24.60;;;;;;;9.48;68.49;96383.94;5052663;28;20130;-77
2021/04/02 00:56:12;;;;;;;35.83;23.50;;;;;;;9.33;69.02;96380.19;5065597;28;20021;-76
2021/04/02 00:58:39;;;;;;;39.27;24.83;;;;;;;9.31;69.48;96375.06;5067293;28;20047;-76
2021/04/02 01:01:07;;;;;;;38.27;24.60;;;;;;;9.27;69.10;96378.97;5047182;28;20517;-76
2021/04/02 01:03:34;;;;;;;41.37;23.43;;;;;;;9.27;68.83;96378.13;5047730;28;20123;-76
2021/04/02 01:06:14;;;;;;;38.27;23.67;;;;;;;9.14;69.51;96376.69;5067796;28;20028;-76
2021/04/02 01:08:42;;;;;;;39.80;23.03;;;;;;;9.10;70.12;96383.19;5041402;28;20430;-76
2021/04/02 01:11:22;;;;;;;37.17;23.53;;;;;;;9.08;70.40;96379.88;5061181;28;20956;-76
2021/04/02 01:13:56;;;;;;;35.70;21.90;;;;;;;9.02;70.41;96374.38;5046204;28;20610;-76
2021/04/02 01:16:26;;;;;;;37.87;21.80;;;;;;;9.01;70.96;96372.75;5036699;28;20174;-76
2021/04/02 01:18:58;;;;;;;30.37;18.93;;;;;;;8.99;70.50;96375.53;5049059;28;20078;-77
2021/04/02 01:21:32;;;;;;;26.83;17.33;;;;;;;8.99;70.85;96375.53;5049872;28;20024;-76
2021/04/02 01:24:01;;;;;;;30.73;18.17;;;;;;;8.78;71.79;96377.53;5044013;28;20031;-77
2021/04/02 01:26:39;;;;;;;28.07;17.37;;;;;;;8.83;71.36;96378.78;5053650;28;20032;-76
2021/04/02 01:29:14;;;;;;;28.83;16.43;;;;;;;8.83;71.56;96377.94;5070274;28;20028;-76
2021/04/02 01:31:47;;;;;;;28.57;16.50;;;;;;;8.72;71.64;96377.16;5077540;28;20028;-76
2021/04/02 01:34:15;;;;;;;20.85;12.63;;;;;;;8.70;72.33;96384.34;5058740;28;20039;-77
2021/04/02 01:36:43;;;;;;;30.80;18.30;;;;;;;8.55;72.18;96377.94;5057163;28;20029;-77
2021/04/02 01:39:13;;;;;;;30.07;17.13;;;;;;;8.57;72.27;96377.78;5071889;28;20068;-76
2021/04/02 01:41:43;;;;;;;30.50;18.00;;;;;;;8.50;72.52;96385.38;5059757;28;20033;-77
2021/04/02 01:44:10;;;;;;;29.67;17.53;;;;;;;8.38;73.48;96376.03;5050909;28;20052;-76
2021/04/02 01:46:40;;;;;;;29.83;17.10;;;;;;;8.47;73.02;96375.19;5059781;28;20074;-76
2021/04/02 01:49:07;;;;;;;27.73;17.90;;;;;;;8.39;73.15;96368.03;5062334;28;20034;-76
2021/04/02 01:51:35;;;;;;;30.53;17.27;;;;;;;8.39;73.28;96372.44;5038450;28;20112;-77
2021/04/02 01:54:04;;;;;;;29.67;16.17;;;;;;;8.27;73.58;96369.94;5077449;28;20027;-76
2021/04/02 01:56:32;;;;;;;29.53;17.17;;;;;;;8.20;73.66;96373.28;5062727;28;20543;-76
2021/04/02 01:58:59;;;;;;;34.27;16.87;;;;;;;8.07;74.54;96375.38;5062222;28;20021;-76
2021/04/02 02:01:36;;;;;;;27.30;15.30;;;;;;;8.05;75.04;96370.28;5066446;28;20028;-76
2021/04/02 02:04:04;;;;;;;25.20;15.23;;;;;;;8.04;74.91;96374.69;5060723;28;20428;-76
2021/04/02 02:06:33;;;;;;;27.67;15.77;;;;;;;8.16;74.52;96372.75;5076648;28;20024;-76
2021/04/02 02:09:32;;;;;;;26.53;14.97;;;;;;;8.02;74.38;96383.66;5067702;28;20104;-76
2021/04/02 02:12:07;;;;;;;28.75;15.60;;;;;;;7.98;74.91;96377.03;5063617;28;20048;-76
2021/04/02 02:14:43;;;;;;;25.90;14.77;;;;;;;7.93;75.28;96377.44;5072500;28;20036;-76
2021/04/02 02:17:21;;;;;;;27.03;15.43;;;;;;;8.03;74.07;96372.22;5051073;28;20044;-76
2021/04/02 02:19:48;;;;;;;25.63;14.50;;;;;;;7.92;74.82;96375.81;5071988;28;20032;-76
2021/04/02 02:22:17;;;;;;;21.17;13.73;;;;;;;7.87;74.81;96383.25;5065719;28;20492;-76
2021/04/02 02:24:52;;;;;;;20.77;11.90;;;;;;;7.87;74.91;96387.66;5055280;28;20094;-76
2021/04/02 02:27:18;;;;;;;22.17;12.50;;;;;;;7.83;74.67;96389.72;5047541;28;20024;-76
2021/04/02 02:29:45;;;;;;;20.20;12.53;;;;;;;7.78;74.77;96397.19;5067496;28;20074;-76
2021/04/02 02:32:11;;;;;;;20.63;12.43;;;;;;;7.87;74.32;96392.91;5078284;28;20099;-76
2021/04/02 02:34:40;;;;;;;21.97;12.50;;;;;;;7.71;75.11;96389.06;5076673;28;20025;-76
2021/04/02 02:37:07;;;;;;;18.27;11.60;;;;;;;7.62;74.65;96387.25;5053163;28;20115;-76
2021/04/02 02:39:41;;;;;;;19.87;11.23;;;;;;;7.59;75.20;96400.59;5061924;28;20032;-78
2021/04/02 02:42:08;;;;;;;21.40;10.20;;;;;;;7.57;74.96;96400.72;5072157;28;20476;-76
2021/04/02 02:44:36;;;;;;;22.23;11.53;;;;;;;7.50;75.25;96404.03;5067791;28;20875;-75
2021/04/02 02:47:08;;;;;;;20.70;10.40;;;;;;;7.49;75.44;96402.38;5077728;28;20120;-76
2021/04/02 02:49:41;;;;;;;25.10;12.03;;;;;;;7.41;75.07;96402.22;5073464;28;20516;-76
2021/04/02 02:52:09;;;;;;;22.37;12.43;;;;;;;7.26;76.66;96407.03;5050699;28;20428;-76
2021/04/02 02:54:35;;;;;;;17.83;11.77;;;;;;;7.16;77.37;96408.78;5041680;28;20025;-76
2021/04/02 02:57:05;;;;;;;18.47;10.87;;;;;;;7.19;77.01;96409.34;5053553;28;20115;-76
2021/04/02 02:59:33;;;;;;;22.53;11.40;;;;;;;7.18;76.84;96407.72;5064529;28;20033;-76
2021/04/02 03:02:05;;;;;;;19.23;11.90;;;;;;;6.89;77.98;96414.63;5052855;28;20528;-76
2021/04/02 03:04:32;;;;;;;23.80;12.50;;;;;;;6.89;77.28;96406.78;5049506;28;20039;-76
2021/04/02 03:07:01;;;;;;;22.40;10.60;;;;;;;6.71;77.33;96410.03;5063645;28;20016;-76
2021/04/02 03:09:30;;;;;;;18.63;9.70;;;;;;;6.54;76.30;96408.84;5056811;28;20032;-76
2021/04/02 03:11:59;;;;;;;14.63;8.23;;;;;;;6.56;75.50;96421.75;5053579;28;20980;-76
2021/04/02 03:14:26;;;;;;;14.27;8.00;;;;;;;6.54;75.93;96408.03;5056930;28;20394;-76
2021/04/02 03:16:57;;;;;;;12.83;8.33;;;;;;;6.62;76.09;96413.41;5056558;28;20558;-76
2021/04/02 03:19:25;;;;;;;16.40;8.57;;;;;;;6.35;75.93;96414.78;5046311;28;20494;-75
2021/04/02 03:22:04;;;;;;;19.47;9.13;;;;;;;6.35;76.19;96420.00;5049012;28;20110;-76
2021/04/02 03:24:38;;;;;;;16.37;9.20;;;;;;;6.31;76.77;96416.00;5048443;28;20489;-76
2021/04/02 03:27:07;;;;;;;15.57;7.93;;;;;;;6.21;76.73;96415.13;5043057;28;20031;-76
2021/04/02 03:29:34;;;;;;;13.23;8.13;;;;;;;6.14;76.25;96412.19;5074063;28;20028;-76
2021/04/02 03:32:04;;;;;;;13.87;8.23;;;;;;;6.30;75.66;96416.94;5063585;28;20487;-77
2021/04/02 03:34:33;;;;;;;13.63;8.03;;;;;;;6.29;75.39;96417.91;5056758;28;20032;-76
2021/04/02 03:37:02;;;;;;;13.03;8.77;;;;;;;6.33;75.30;96413.25;5056268;28;20020;-77
2021/04/02 03:39:31;;;;;;;13.80;7.30;;;;;;;6.22;74.25;96419.38;5047299;28;20047;-77
2021/04/02 03:42:06;;;;;;;11.67;6.80;;;;;;;6.04;75.08;96413.06;5053918;28;20075;-76
2021/04/02 03:44:39;;;;;;;13.32;7.55;;;;;;;5.88;75.04;96410.88;5056890;28;20656;-76
2021/04/02 03:47:16;;;;;;;13.93;7.00;;;;;;;5.78;75.72;96412.56;5053979;28;20480;-77
2021/04/02 03:49:44;;;;;;;11.70;7.17;;;;;;;5.87;75.88;96415.25;5046998;28;20499;-77
2021/04/02 03:52:30;;;;;;;12.33;6.27;;;;;;;5.93;74.61;96410.50;5071481;28;20573;-77
2021/04/02 03:54:57;;;;;;;11.90;5.93;;;;;;;5.94;74.11;96418.22;5061482;28;20036;-76
2021/04/02 03:57:28;;;;;;;14.17;6.60;;;;;;;5.90;73.91;96419.38;5071297;28;20032;-76
2021/04/02 03:59:58;;;;;;;14.70;6.40;;;;;;;5.67;73.85;96419.50;5041768;28;20078;-75
2021/04/02 04:02:26;;;;;;;13.93;6.80;;;;;;;5.54;74.35;96418.81;5050855;28;20113;-76
2021/04/02 04:04:54;;;;;;;12.33;6.43;;;;;;;5.45;74.68;96424.78;5050787;28;20520;-76
2021/04/02 04:07:24;;;;;;;9.40;5.87;;;;;;;5.47;74.38;96422.06;5066265;28;20052;-75
2021/04/02 04:09:52;;;;;;;13.13;6.27;;;;;;;5.61;74.42;96421.75;5053613;28;20063;-76
2021/04/02 04:12:22;;;;;;;13.13;6.50;;;;;;;5.57;74.23;96426.41;5050071;28;20878;-75
2021/04/02 04:14:55;;;;;;;12.77;6.00;;;;;;;5.57;73.79;96430.81;5050729;28;21030;-76
2021/04/02 04:17:29;;;;;;;11.23;5.77;;;;;;;5.62;73.59;96426.03;5051924;28;20037;-76
2021/04/02 04:20:04;;;;;;;8.27;4.97;;;;;;;5.62;72.85;96426.84;5050325;28;20029;-76
2021/04/02 04:22:37;;;;;;;11.90;5.17;;;;;;;5.52;72.96;96431.16;5066094;28;20471;-76
2021/04/02 04:25:04;;;;;;;11.67;6.60;;;;;;;5.59;72.89;96432.31;5056125;28;20462;-76
2021/04/02 04:27:31;;;;;;;11.10;5.20;;;;;;;5.54;72.94;96437.09;5055877;28;20486;-75
2021/04/02 04:29:59;;;;;;;11.83;5.17;;;;;;;5.49;73.07;96427.97;5055611;28;20134;-76
2021/04/02 04:32:26;;;;;;;14.53;5.43;;;;;;;5.35;72.61;96429.06;5056846;28;20546;-76
2021/04/02 04:34:51;;;;;;;11.53;5.17;;;;;;;5.19;73.23;96443.31;5057717;28;20479;-76
2021/04/02 04:37:19;;;;;;;9.60;5.43;;;;;;;5.35;72.54;96439.50;5035286;28;20867;-76
2021/04/02 04:39:47;;;;;;;8.63;5.03;;;;;;;5.38;72.59;96440.06;5055659;28;20063;-76
2021/04/02 04:42:16;;;;;;;10.07;5.73;;;;;;;5.39;73.07;96436.50;5040728;28;20016;-76
2021/04/02 04:44:47;;;;;;;11.10;5.53;;;;;;;5.21;73.87;96432.78;5045614;28;20467;-76
2021/04/02 04:47:13;;;;;;;13.37;5.57;;;;;;;5.08;73.83;96435.50;5062385;28;20043;-76
2021/04/02 04:49:38;;;;;;;10.43;5.37;;;;;;;5.09;73.63;96433.72;5048616;28;20447;-76
2021/04/02 04:52:07;;;;;;;11.57;5.80;;;;;;;5.03;73.95;96437.66;5072877;28;20039;-76
2021/04/02 04:54:34;;;;;;;12.03;5.40;;;;;;;5.05;73.93;96438.34;5073839;28;20072;-77
2021/04/02 04:57:00;;;;;;;12.63;6.00;;;;;;;5.09;73.16;96447.59;5064952;28;20058;-76
2021/04/02 04:59:29;;;;;;;10.43;5.30;;;;;;;4.99;73.98;96449.25;5066277;28;20489;-76
2021/04/02 05:01:55;;;;;;;10.10;5.67;;;;;;;4.86;74.13;96454.59;5050956;28;20537;-76
2021/04/02 05:04:23;;;;;;;11.70;5.93;;;;;;;4.90;74.08;96444.78;5061145;28;20449;-76
2021/04/02 05:06:56;;;;;;;10.93;5.83;;;;;;;4.92;73.96;96443.69;5063420;28;20454;-76
2021/04/02 05:09:26;;;;;;;12.00;5.97;;;;;;;4.87;74.01;96451.03;5059476;28;20036;-77
2021/04/02 05:11:55;;;;;;;9.40;5.63;;;;;;;4.91;73.59;96449.03;5052395;28;20275;-76
2021/04/02 05:14:22;;;;;;;9.43;6.00;;;;;;;4.80;74.19;96444.66;5060267;28;20447;-76
2021/04/02 05:16:50;;;;;;;9.07;5.53;;;;;;;4.86;74.06;96449.41;5039993;28;20831;-76
2021/04/02 05:19:17;;;;;;;9.63;5.60;;;;;;;4.90;74.17;96458.63;5048315;28;20441;-77
2021/04/02 05:21:43;;;;;;;10.33;6.60;;;;;;;5.04;73.10;96456.72;5034829;28;21047;-75
2021/04/02 05:24:10;;;;;;;11.60;5.80;;;;;;;5.05;73.04;96453.16;5044178;28;20453;-76
2021/04/02 05:26:36;;;;;;;12.83;6.07;;;;;;;5.08;72.30;96463.34;5052190;28;20948;-76
2021/04/02 05:29:03;;;;;;;12.53;6.87;;;;;;;5.13;73.27;96472.50;5047732;28;20437;-76
2021/04/02 05:31:30;;;;;;;11.97;6.43;;;;;;;5.28;72.47;96467.00;5053375;28;20035;-76
2021/04/02 05:33:56;;;;;;;11.77;6.40;;;;;;;5.29;72.55;96466.88;5057782;28;20835;-76
2021/04/02 05:36:22;;;;;;;10.87;5.60;;;;;;;5.44;71.34;96459.63;5055617;28;20482;-75
2021/04/02 05:38:48;;;;;;;13.53;5.87;;;;;;;6.01;69.33;96457.72;5061066;28;20461;-75
2021/04/02 05:41:21;;;;;;;10.43;5.30;;;;;;;5.71;70.13;96456.59;5042201;28;20462;-76
2021/04/02 05:43:53;;;;;;;11.20;5.97;;;;;;;5.57;70.35;96459.50;5059309;28;20454;-76
2021/04/02 05:46:24;;;;;;;8.93;4.87;;;;;;;5.64;70.25;96456.25;5060322;28;20059;-76
2021/04/02 05:48:58;;;;;;;10.93;5.40;;;;;;;5.71;69.12;96450.56;5038718;28;20550;-76
2021/04/02 05:51:25;;;;;;;10.20;5.87;;;;;;;6.09;68.76;96447.44;5058817;28;21055;-76
2021/04/02 05:53:54;;;;;;;11.77;5.60;;;;;;;6.74;66.35;96446.34;5060937;28;20422;-76
2021/04/02 05:56:19;;;;;;;10.33;5.80;;;;;;;7.16;64.12;96458.47;5060830;28;20467;-76
2021/04/02 05:58:46;;;;;;;9.30;5.37;;;;;;;7.63;62.47;96438.63;5041625;28;20475;-75
2021/04/02 06:01:12;;;;;;;8.40;5.10;;;;;;;7.71;61.85;96437.94;5045130;28;20032;-76
2021/04/02 06:03:39;;;;;;;9.53;4.77;;;;;;;7.87;61.14;96432.16;5041291;28;20028;-75
2021/04/02 06:06:05;;;;;;;10.40;4.93;;;;;;;8.25;60.60;96431.34;5061181;28;20093;-75
2021/04/02 06:08:33;;;;;;;9.00;5.53;;;;;;;8.10;60.53;96433.53;5048724;28;20478;-75
2021/04/02 06:10:59;;;;;;;8.20;5.40;;;;;;;8.20;60.49;96434.34;5064529;28;20181;-76
2021/04/02 06:13:24;;;;;;;9.37;5.10;;;;;;;8.65;58.24;96433.78;5043686;28;20566;-76
2021/04/02 06:15:52;;;;;;;11.47;5.63;;;;;;;8.98;57.65;96434.19;5046800;28;20935;-76
2021/04/02 06:18:22;;;;;;;11.00;4.90;;;;;;;8.98;57.10;96442.06;5046765;28;20024;-76
2021/04/02 06:20:49;;;;;;;10.43;7.00;;;;;;;9.32;55.77;96438.88;5043672;28;20072;-75
2021/04/02 06:23:25;;;;;;;9.40;4.97;;;;;;;9.59;56.30;96433.63;5051304;28;20025;-75
2021/04/02 06:25:52;;;;;;;9.27;5.03;;;;;;;10.23;53.56;96441.41;5063898;28;20039;-76
2021/04/02 06:28:21;;;;;;;11.57;5.67;;;;;;;10.44;52.96;96435.88;5039435;28;20151;-76
2021/04/02 06:30:55;;;;;;;10.60;5.53;;;;;;;10.13;53.53;96431.81;5063806;28;20441;-76
2021/04/02 06:33:39;;;;;;;11.50;5.30;;;;;;;9.38;56.37;96433.84;5060136;28;20048;-76
2021/04/02 06:36:36;;;;;;;9.15;5.13;;;;;;;9.48;55.07;96438.22;5049860;28;20032;-76
2021/04/02 06:39:06;;;;;;;11.37;6.13;;;;;;;9.28;55.19;96440.97;5033644;28;20036;-76
2021/04/02 06:41:34;;;;;;;8.07;5.63;;;;;;;8.93;57.71;96439.06;5064246;28;20032;-76
2021/04/02 06:44:02;;;;;;;10.23;5.87;;;;;;;8.72;58.80;96441.91;5042367;28;20034;-76
2021/04/02 06:46:34;;;;;;;9.70;5.67;;;;;;;9.09;57.10;96448.94;5055632;28;20071;-75
2021/04/02 06:49:10;;;;;;;8.10;5.33;;;;;;;8.99;57.38;96454.22;5067550;28;20024;-76
2021/04/02 06:51:38;;;;;;;19.30;7.07;;;;;;;9.15;56.67;96457.06;5051113;28;20122;-76
2021/04/02 06:54:04;;;;;;;9.67;5.67;;;;;;;9.88;54.92;96446.53;5042832;28;20028;-76
2021/04/02 06:56:32;;;;;;;8.43;4.97;;;;;;;9.35;56.57;96460.41;5044579;28;20040;-76
2021/04/02 06:59:02;;;;;;;10.10;6.37;;;;;;;9.53;56.30;96455.22;5041170;28;20036;-76
2021/04/02 07:01:32;;;;;;;8.63;5.73;;;;;;;8.11;60.53;96463.19;5057579;28;20039;-76
2021/04/02 07:04:00;;;;;;;12.33;6.40;;;;;;;9.17;58.09;96462.16;5051723;28;20054;-75
2021/04/02 07:06:27;;;;;;;12.20;6.60;;;;;;;9.60;56.60;96458.88;5046034;28;20078;-76
2021/04/02 07:08:54;;;;;;;14.97;6.10;;;;;;;8.91;57.98;96468.03;5074388;28;20029;-75
2021/04/02 07:11:21;;;;;;;9.40;6.57;;;;;;;10.06;54.55;96466.72;5056063;28;20085;-76
2021/04/02 07:13:52;;;;;;;10.13;6.33;;;;;;;10.18;55.36;96459.44;5066615;28;20021;-76
2021/04/02 07:16:19;;;;;;;10.37;6.57;;;;;;;9.86;55.39;96453.75;5059802;28;20035;-75
2021/04/02 07:18:46;;;;;;;10.80;7.37;;;;;;;9.59;57.25;96462.50;5069753;28;20028;-76
2021/04/02 07:21:13;;;;;;;10.00;6.93;;;;;;;10.15;54.64;96456.13;5075059;28;20460;-76
2021/04/02 07:23:40;;;;;;;10.17;6.30;;;;;;;9.77;56.56;96462.50;5057830;28;20492;-76
2021/04/02 07:26:08;;;;;;;11.43;7.70;;;;;;;8.45;60.08;96469.69;5060454;28;20020;-75
2021/04/02 07:28:36;;;;;;;11.67;7.27;;;;;;;8.51;60.86;96465.66;5063750;28;20028;-75
2021/04/02 07:31:04;;;;;;;13.93;8.03;;;;;;;9.05;58.75;96472.00;5071372;28;20622;-74
2021/04/02 07:33:31;;;;;;;10.17;7.40;;;;;;;8.83;59.88;96475.81;5048279;28;20484;-75
2021/04/02 07:36:01;;;;;;;16.07;7.63;;;;;;;8.86;60.30;96479.94;5056736;28;20071;-74
2021/04/02 07:38:30;;;;;;;13.83;8.17;;;;;;;8.64;61.52;96484.53;5050166;28;20094;-75
2021/04/02 07:40:57;;;;;;;11.13;7.77;;;;;;;8.45;61.25;96484.56;5072066;28;20037;-75
2021/04/02 07:43:30;;;;;;;15.77;8.87;;;;;;;8.36;63.96;96491.44;5073573;28;20588;-74
2021/04/02 07:46:13;;;;;;;12.63;8.23;;;;;;;8.45;61.58;96488.03;5075244;28;20033;-76
2021/04/02 07:48:39;;;;;;;16.95;9.80;;;;;;;8.05;63.23;96496.00;5052953;28;20021;-76
2021/04/02 07:51:05;;;;;;;11.93;8.83;;;;;;;8.74;61.67;96490.59;5059848;28;20008;-75
2021/04/02 07:53:30;;;;;;;10.73;8.23;;;;;;;8.86;60.70;96485.19;5058134;28;20059;-74
2021/04/02 07:55:56;;;;;;;12.47;8.67;;;;;;;8.04;62.69;96482.06;5048731;28;20033;-75
2021/04/02 07:58:28;;;;;;;13.87;9.43;;;;;;;9.27;59.91;96481.31;5043026;28;20418;-74
2021/04/02 08:00:59;;;;;;;13.93;8.23;;;;;;;9.37;60.18;96483.88;5056190;28;20398;-75
2021/04/02 08:03:26;;;;;;;12.53;8.03;;;;;;;9.21;60.35;96485.31;5061479;28;20046;-74
2021/04/02 08:05:59;;;;;;;12.67;8.60;;;;;;;8.92;60.20;96501.19;5074000;28;20401;-75
2021/04/02 08:08:27;;;;;;;13.90;8.30;;;;;;;8.38;62.23;96497.38;5069755;28;20086;-75
2021/04/02 08:11:27;;;;;;;15.83;9.27;;;;;;;8.56;62.08;96496.69;5055137;28;20175;-76
2021/04/02 08:14:13;;;;;;;13.77;9.00;;;;;;;8.66;61.64;96494.91;5042751;28;20131;-76
2021/04/02 08:16:51;;;;;;;12.27;8.80;;;;;;;8.36;61.91;96494.06;5073279;28;20581;-77
2021/04/02 08:19:20;;;;;;;14.27;10.43;;;;;;;8.40;63.85;96499.88;5077280;28;20039;-76
2021/04/02 08:21:58;;;;;;;15.20;10.20;;;;;;;8.39;63.25;96501.69;5055666;28;20040;-75
2021/04/02 08:24:27;;;;;;;17.00;9.93;;;;;;;8.12;63.90;96504.16;5076844;28;20145;-76
2021/04/02 08:26:54;;;;;;;16.80;10.23;;;;;;;8.61;62.76;96503.16;5050687;28;20036;-75
2021/04/02 08:29:22;;;;;;;14.00;10.17;;;;;;;8.80;62.55;96502.31;5073838;28;20064;-75
2021/04/02 08:31:55;;;;;;;16.60;11.17;;;;;;;8.48;62.34;96500.84;5076462;28;20040;-76
2021/04/02 08:34:23;;;;;;;15.05;10.07;;;;;;;8.14;63.86;96510.06;5065743;28;20046;-76
2021/04/02 08:36:51;;;;;;;14.30;9.57;;;;;;;8.10;64.04;96504.25;5066184;28;20055;-75
2021/04/02 08:39:22;;;;;;;13.23;8.73;;;;;;;8.29;63.13;96500.84;5069893;28;20490;-75
2021/04/02 08:41:48;;;;;;;17.07;10.20;;;;;;;8.66;62.75;96503.59;5059276;28;20035;-75
2021/04/02 08:44:14;;;;;;;15.10;11.73;;;;;;;8.50;63.07;96505.94;5069333;28;21093;-76
2021/04/02 08:46:46;;;;;;;14.17;9.97;;;;;;;8.78;63.01;96503.41;5051601;28;20044;-76
2021/04/02 08:49:15;;;;;;;16.90;11.10;;;;;;;8.93;62.00;96502.00;5049699;28;20119;-76
2021/04/02 08:51:51;;;;;;;19.60;13.37;;;;;;;9.36;61.29;96503.25;5078214;28;20034;-76
2021/04/02 08:54:19;;;;;;;13.23;9.70;;;;;;;9.08;61.97;96505.81;5080809;28;20123;-76
2021/04/02 08:56:48;;;;;;;15.13;10.53;;;;;;;9.03;61.34;96501.97;5064724;28;20016;-76
2021/04/02 08:59:15;;;;;;;15.40;11.23;;;;;;;8.74;61.93;96508.94;5079109;28;20024;-76
2021/04/02 09:01:44;;;;;;;17.10;11.00;;;;;;;9.47;59.56;96496.97;5077182;28;20028;-76
2021/04/02 09:04:12;;;;;;;20.80;10.60;;;;;;;9.62;59.39;96503.38;5080258;28;20024;-77
2021/04/02 09:06:38;;;;;;;14.47;9.90;;;;;;;9.52;59.85;96500.78;5052505;28;20099;-76
2021/04/02 09:09:13;;;;;;;14.47;10.77;;;;;;;8.87;61.56;96495.53;5050982;28;20028;-76
2021/04/02 09:11:39;;;;;;;15.73;11.10;;;;;;;10.20;57.96;96489.03;5055719;28;20025;-76
2021/04/02 09:14:11;;;;;;;17.47;11.80;;;;;;;9.78;58.28;96492.22;5064097;28;20016;-76
2021/04/02 09:16:38;;;;;;;18.33;12.60;;;;;;;10.58;55.09;96486.09;5056665;28;20404;-76
2021/04/02 09:19:05;;;;;;;21.90;13.60;;;;;;;10.72;55.37;96481.25;5065187;28;20028;-76
2021/04/02 09:21:32;;;;;;;19.13;11.40;;;;;;;10.74;55.03;96481.94;5077776;28;20028;-76
2021/04/02 09:23:58;;;;;;;14.80;10.60;;;;;;;10.67;54.65;96491.44;5080002;28;20035;-76
2021/04/02 09:26:24;;;;;;;14.50;10.50;;;;;;;10.65;54.20;96488.94;5050674;28;20060;-76
2021/04/02 09:28:50;;;;;;;15.03;10.30;;;;;;;11.20;52.64;96477.25;5060393;28;20028;-77
2021/04/02 09:31:22;;;;;;;16.77;10.83;;;;;;;13.05;47.13;96473.44;5075550;28;20036;-77
2021/04/02 09:33:52;;;;;;;20.07;14.07;;;;;;;13.81;45.21;96468.53;5080179;28;20039;-77
2021/04/02 09:36:19;;;;;;;19.80;15.67;;;;;;;13.80;43.58;96462.44;5077899;28;20028;-77
2021/04/02 09:38:46;;;;;;;15.30;10.93;;;;;;;15.50;40.67;96455.84;5051521;28;20108;-77
2021/04/02 09:41:13;;;;;;;16.60;12.40;;;;;;;13.14;45.64;96467.13;5080352;28;20056;-76
2021/04/02 09:43:46;;;;;;;16.13;10.67;;;;;;;12.05;47.85;96472.00;5080561;28;20033;-76
2021/04/02 09:46:14;;;;;;;16.50;11.77;;;;;;;11.74;48.35;96477.81;5064352;28;20039;-76
2021/04/02 09:48:40;;;;;;;14.77;9.80;;;;;;;12.16;48.60;96476.94;5078858;28;20051;-76
2021/04/02 09:51:06;;;;;;;11.83;8.93;;;;;;;14.67;42.28;96459.53;5077395;28;20385;-75
2021/04/02 09:53:32;;;;;;;14.30;10.70;;;;;;;15.95;39.07;96453.94;5051208;28;20050;-76
2021/04/02 09:55:58;;;;;;;16.33;10.57;;;;;;;15.48;39.67;96465.78;5066906;28;20052;-78
2021/04/02 09:58:24;;;;;;;13.53;9.90;;;;;;;14.46;42.27;96460.19;5048163;28;20393;-76
2021/04/02 10:00:50;;;;;;;12.77;8.93;;;;;;;12.75;45.25;96469.69;5074837;28;20031;-76
2021/04/02 10:03:16;;;;;;;16.60;9.70;;;;;;;11.53;47.89;96492.22;5056007;28;20043;-75
2021/04/02 10:05:42;;;;;;;11.10;7.90;;;;;;;12.65;45.91;96469.03;5072523;28;20041;-76
2021/04/02 10:08:07;;;;;;;11.77;8.40;;;;;;;14.98;39.69;96456.75;5079409;28;20019;-76
2021/04/02 10:10:34;;;;;;;10.87;8.00;;;;;;;14.69;39.31;96452.25;5075028;28;20044;-77
2021/04/02 10:13:00;;;;;;;12.53;8.57;;;;;;;14.56;40.68;96452.03;5067435;28;20043;-76
2021/04/02 10:15:26;;;;;;;11.50;8.97;;;;;;;15.13;39.64;96443.53;5059692;28;20036;-76
2021/04/02 10:17:52;;;;;;;10.80;8.73;;;;;;;12.58;44.23;96454.88;5060344;28;20066;-76
2021/04/02 10:20:18;;;;;;;11.90;8.30;;;;;;;12.97;44.58;96458.41;5052515;28;20029;-76
2021/04/02 10:22:44;;;;;;;10.33;7.73;;;;;;;12.85;44.11;96449.22;5061196;28;20674;-76
2021/04/02 10:25:09;;;;;;;10.87;8.83;;;;;;;12.48;44.52;96455.03;5084078;28;20115;-76
2021/04/02 10:27:35;;;;;;;13.63;7.90;;;;;;;12.45;44.22;96450.91;5044964;28;20029;-77
2021/04/02 10:30:01;;;;;;;11.17;7.37;;;;;;;14.03;41.65;96440.50;5060314;28;20028;-76
2021/04/02 10:32:26;;;;;;;10.23;7.27;;;;;;;15.90;38.08;96434.31;5076323;28;20043;-76
2021/04/02 10:34:53;;;;;;;10.93;7.57;;;;;;;14.32;40.94;96431.88;5079014;28;20041;-76
2021/04/02 10:37:19;;;;;;;8.87;6.53;;;;;;;14.64;39.91;96440.53;5073672;28;20040;-77
2021/04/02 10:39:45;;;;;;;10.50;5.53;;;;;;;13.71;41.29;96444.97;5058409;28;20021;-77
2021/04/02 10:42:11;;;;;;;7.70;6.13;;;;;;;13.94;40.33;96436.25;5078502;28;20032;-76
2021/04/02 10:44:37;;;;;;;8.00;5.97;;;;;;;15.08;38.32;96430.00;5079091;28;20031;-77
2021/04/02 10:47:03;;;;;;;11.03;6.60;;;;;;;16.23;35.84;96421.34;5079231;28;20024;-76
2021/04/02 10:49:29;;;;;;;8.77;6.27;;;;;;;16.66;35.75;96422.13;5086511;28;20103;-77
2021/04/02 10:51:55;;;;;;;10.50;6.70;;;;;;;17.31;34.15;96411.38;5078005;28;20095;-77
2021/04/02 10:54:20;;;;;;;14.80;7.90;;;;;;;17.64;33.91;96409.66;5063040;28;20556;-77
2021/04/02 10:56:46;;;;;;;8.60;6.63;;;;;;;18.06;33.44;96410.41;5076440;28;20042;-77
2021/04/02 10:59:13;;;;;;;11.17;6.83;;;;;;;14.69;38.20;96422.28;5058789;28;20075;-76
2021/04/02 11:01:39;;;;;;;10.33;6.43;;;;;;;14.51;39.76;96431.38;5067237;28;20139;-77
2021/04/02 11:04:05;;;;;;;8.27;6.40;;;;;;;14.57;37.99;96425.38;5075496;28;20077;-77
2021/04/02 11:06:30;;;;;;;8.77;5.70;;;;;;;15.67;37.05;96426.50;5051899;28;20559;-77
2021/04/02 11:08:56;;;;;;;8.77;6.07;;;;;;;15.73;36.32;96418.63;5060661;28;20020;-77
2021/04/02 11:11:22;;;;;;;9.00;5.60;;;;;;;15.61;35.93;96413.97;5057983;28;20036;-77
2021/04/02 11:13:48;;;;;;;7.53;5.37;;;;;;;16.70;34.34;96404.84;5057853;28;20122;-77
2021/04/02 11:16:13;;;;;;;7.90;5.67;;;;;;;15.93;35.96;96412.72;5075598;28;20036;-76
2021/04/02 11:18:41;;;;;;;7.30;5.17;;;;;;;15.88;36.35;96421.22;5054858;28;20531;-77
2021/04/02 11:21:07;;;;;;;8.17;5.60;;;;;;;15.94;36.04;96411.72;5063966;28;20397;-76
2021/04/02 11:23:33;;;;;;;8.53;5.07;;;;;;;17.02;33.02;96407.09;5059095;28;20435;-75
2021/04/02 11:25:58;;;;;;;7.67;5.17;;;;;;;16.35;34.66;96405.75;5060968;28;20037;-76
2021/04/02 11:28:24;;;;;;;11.03;5.50;;;;;;;16.24;35.04;96405.25;5049035;28;20016;-76
2021/04/02 11:30:51;;;;;;;7.57;5.50;;;;;;;16.84;33.95;96394.34;5059348;28;20036;-77
2021/04/02 11:33:16;;;;;;;7.43;5.33;;;;;;;15.89;36.14;96399.00;5074396;28;20055;-77
2021/04/02 11:35:42;;;;;;;8.00;5.30;;;;;;;15.94;35.08;96396.63;5056454;28;20036;-77
2021/04/02 11:38:08;;;;;;;8.57;5.43;;;;;;;15.05;36.47;96403.88;5081662;28;20105;-78